Time;durP1;ratioP1;P1;durP2;ratioP2;P2;SDS_P1;SDS_P2;PMS_P1;PMS_P2;Temp;Humidity;BMP_temperature;BMP_pressure;BME280_temperature;BME280_humidity;BME280_pressure;Samples;Min_cycle;Max_cycle;Signal;HPM_P1;HPM_P2
2021/04/29 05:56:00;;;;;;;15.43;12.48;;;;;;;;;;10675360;27;20377;-81
2021/04/29 06:01:02;;;;;;;;;;;;;;;;;;10672505;27;20488;-82
2021/04/29 06:06:03;;;;;;;20.48;14.10;;;;;;;;;;10674259;27;19924;-82
2021/04/29 06:11:04;;;;;;;15.70;11.77;;;;;;;;;;10673485;27;20376;-82
2021/04/29 06:16:06;;;;;;;15.93;13.88;;;;;;;;;;10692892;27;20038;-80
2021/04/29 06:21:07;;;;;;;17.25;14.63;;;;;;;;;;10686071;27;20027;-82
2021/04/29 06:26:08;;;;;;;13.52;12.23;;;;;;;;;;10678049;27;20030;-83
2021/04/29 06:31:09;;;;;;;16.33;13.43;;;;;;;;;;10671432;27;20049;-83
2021/04/29 06:36:10;;;;;;;17.88;13.27;;;;;;;;;;10669078;27;20019;-81
2021/04/29 06:41:11;;;;;;;17.65;15.32;;;;;;;;;;10669801;27;20046;-83
2021/04/29 06:46:12;;;;;;;15.73;14.00;;;;;;;;;;10668822;27;20414;-83
2021/04/29 06:51:13;;;;;;;16.85;14.98;;;;;;;;;;10668598;27;20027;-84
2021/04/29 06:56:14;;;;;;;8.38;4.65;;;;;;;;;;10666171;27;20106;-87
2021/04/29 07:01:15;;;;;;;5.68;4.60;;;;;;;;;;10660293;27;20034;-87
2021/04/29 07:06:16;;;;;;;9.48;8.63;;;;;;;;;;10639344;27;20121;-84
2021/04/29 07:11:17;;;;;;;6.88;5.30;;;;;;;;;;10634251;27;20019;-84
2021/04/29 07:21:57;;;;;;;8.63;6.10;;;;;;;;;;10639268;27;20019;-83
2021/04/29 07:26:58;;;;;;;10.20;9.15;;;;;;;;;;10640545;27;20031;-85
2021/04/29 07:32:00;;;;;;;9.00;6.88;;;;;;;;;;10642060;27;20480;-84
2021/04/29 07:37:03;;;;;;;11.30;9.13;;;;;;;;;;10638656;27;20070;-83
2021/04/29 07:42:04;;;;;;;8.10;7.28;;;;;;;;;;10636708;27;20046;-84
2021/04/29 07:47:05;;;;;;;10.82;9.45;;;;;;;;;;10640923;27;20023;-84
2021/04/29 07:52:06;;;;;;;9.07;7.07;;;;;;;;;;10660948;27;20023;-85
2021/04/29 07:57:07;;;;;;;11.00;8.43;;;;;;;;;;10660564;27;20204;-85
2021/04/29 08:02:08;;;;;;;10.82;9.48;;;;;;;;;;10638955;27;20023;-83
2021/04/29 08:07:09;;;;;;;8.57;7.25;;;;;;;;;;10636518;27;20027;-81
2021/04/29 08:12:10;;;;;;;9.77;8.05;;;;;;;;;;10634766;27;20031;-83
2021/04/29 08:17:11;;;;;;;12.50;11.27;;;;;;;;;;10636268;27;20016;-82
2021/04/29 08:22:12;;;;;;;10.60;9.50;;;;;;;;;;10635154;27;20027;-83
2021/04/29 08:27:13;;;;;;;7.78;7.03;;;;;;;;;;10649522;27;20079;-81
2021/04/29 08:32:14;;;;;;;8.13;6.55;;;;;;;;;;10667181;27;20031;-80
2021/04/29 08:37:17;;;;;;;19.25;17.45;;;;;;;;;;10667005;27;20019;-82
2021/04/29 08:42:18;;;;;;;10.25;9.20;;;;;;;;;;10644749;27;20034;-84
2021/04/29 08:47:19;;;;;;;7.45;6.30;;;;;;;;;;10635583;27;20365;-82
2021/04/29 08:52:20;;;;;;;11.85;10.63;;;;;;;;;;10637410;27;20035;-84
2021/04/29 08:57:21;;;;;;;8.40;7.28;;;;;;;;;;10636028;27;20057;-83
2021/04/29 09:02:35;;;;;;;14.77;13.27;;;;;;;;;;10635672;27;20533;-83
2021/04/29 09:07:36;;;;;;;21.05;18.88;;;;;;;;;;10649544;27;20419;-81
2021/04/29 09:12:44;;;;;;;20.25;18.38;;;;;;;;;;10651532;27;20034;-81
2021/04/29 09:17:45;;;;;;;13.07;11.75;;;;;;;;;;10649902;27;20042;-84
2021/04/29 09:22:46;;;;;;;16.10;14.45;;;;;;;;;;10636563;27;20027;-83
2021/04/29 09:27:52;;;;;;;17.67;15.95;;;;;;;;;;10636569;27;20030;-82
2021/04/29 09:32:58;;;;;;;16.70;15.00;;;;;;;;;;10637404;27;20023;-83
2021/04/29 09:38:00;;;;;;;13.95;12.57;;;;;;;;;;10635288;27;20106;-83
2021/04/29 09:43:01;;;;;;;13.52;12.10;;;;;;;;;;10633100;27;20019;-82
2021/04/29 09:48:03;;;;;;;22.25;19.92;;;;;;;;;;10634380;27;20029;-83
2021/04/29 09:53:14;;;;;;;14.50;12.48;;;;;;;;;;10635124;28;20038;-83
2021/04/29 09:58:17;;;;;;;20.60;18.55;;;;;;;;;;10635005;28;20102;-82
2021/04/29 10:03:18;;;;;;;15.05;13.48;;;;;;;;;;10634624;28;20488;-82
2021/04/29 10:08:23;;;;;;;17.83;16.13;;;;;;;;;;10637848;28;20023;-83
2021/04/29 10:13:36;;;;;;;25.13;22.88;;;;;;;;;;10633586;28;20044;-84
2021/04/29 10:18:39;;;;;;;12.55;11.23;;;;;;;;;;10635072;28;20210;-83
2021/04/29 10:23:40;;;;;;;15.77;13.85;;;;;;;;;;10635965;28;20427;-83
2021/04/29 10:28:42;;;;;;;15.43;13.90;;;;;;;;;;10633644;28;20027;-83
2021/04/29 10:33:57;;;;;;;12.95;10.45;;;;;;;;;;10632524;28;20088;-83
2021/04/29 10:39:08;;;;;;;11.38;10.27;;;;;;;;;;10633769;27;20041;-82
2021/04/29 10:44:10;;;;;;;13.60;12.13;;;;;;;;;;10632474;27;20023;-83
2021/04/29 10:49:13;;;;;;;15.32;13.73;;;;;;;;;;10634608;27;20083;-82
2021/04/29 10:54:18;;;;;;;13.32;11.02;;;;;;;;;;10636572;27;20038;-82
2021/04/29 10:59:19;;;;;;;11.65;10.50;;;;;;;;;;10637124;27;20034;-82
2021/04/29 11:04:22;;;;;;;10.18;9.18;;;;;;;;;;10637653;27;20054;-83
2021/04/29 11:09:27;;;;;;;12.75;11.27;;;;;;;;;;10640686;27;20030;-83
2021/04/29 11:14:37;;;;;;;13.60;11.45;;;;;;;;;;10639511;27;20076;-83
2021/04/29 11:19:39;;;;;;;12.93;9.55;;;;;;;;;;10640936;27;20026;-83
2021/04/29 11:24:42;;;;;;;11.38;10.32;;;;;;;;;;10639311;27;20023;-83
2021/04/29 11:29:43;;;;;;;8.63;7.75;;;;;;;;;;10639808;27;20023;-84
2021/04/29 11:34:45;;;;;;;7.95;7.13;;;;;;;;;;10638675;27;20050;-83
2021/04/29 11:39:57;;;;;;;9.18;6.63;;;;;;;;;;10640772;27;20019;-83
2021/04/29 11:45:17;;;;;;;7.97;7.28;;;;;;;;;;10640234;27;20385;-83
2021/04/29 11:50:20;;;;;;;6.95;6.22;;;;;;;;;;10646888;27;20027;-83
2021/04/29 11:55:25;;;;;;;7.28;5.60;;;;;;;;;;10662244;27;20027;-83
2021/04/29 12:00:31;;;;;;;6.07;4.85;;;;;;;;;;10666112;27;20023;-82
2021/04/29 12:05:32;;;;;;;5.75;5.05;;;;;;;;;;10655213;27;20080;-84
2021/04/29 12:10:47;;;;;;;7.15;4.53;;;;;;;;;;10651976;27;20512;-84
2021/04/29 12:15:48;;;;;;;5.55;4.93;;;;;;;;;;10641871;27;20437;-84
2021/04/29 12:20:49;;;;;;;9.65;6.47;;;;;;;;;;10638683;27;20023;-83
2021/04/29 12:26:19;;;;;;;5.32;3.95;;;;;;;;;;10639207;27;20059;-84
2021/04/29 12:31:22;;;;;;;4.57;3.60;;;;;;;;;;10630619;27;20035;-84
2021/04/29 12:36:25;;;;;;;5.40;3.33;;;;;;;;;;10637247;27;20068;-83
2021/04/29 12:41:30;;;;;;;7.68;3.95;;;;;;;;;;10637471;27;20470;-84
2021/04/29 12:46:32;;;;;;;6.72;3.60;;;;;;;;;;10639554;27;20019;-83
2021/04/29 12:51:37;;;;;;;4.50;3.70;;;;;;;;;;10634282;27;20067;-81
2021/04/29 12:56:39;;;;;;;4.72;3.30;;;;;;;;;;10633126;27;20015;-82
2021/04/29 13:01:41;;;;;;;6.97;3.75;;;;;;;;;;10633488;27;20469;-84
2021/04/29 13:06:42;;;;;;;3.85;2.90;;;;;;;;;;10634642;27;20468;-82
2021/04/29 13:11:45;;;;;;;4.78;4.18;;;;;;;;;;10632336;27;20027;-83
2021/04/29 13:16:46;;;;;;;8.05;5.97;;;;;;;;;;10632690;27;20156;-82
2021/04/29 13:21:48;;;;;;;6.45;4.07;;;;;;;;;;10632767;27;20023;-83
2021/04/29 13:26:53;;;;;;;5.47;4.40;;;;;;;;;;10631856;27;20027;-81
2021/04/29 13:31:55;;;;;;;7.78;7.10;;;;;;;;;;10631734;27;20026;-84
2021/04/29 13:36:56;;;;;;;6.30;4.82;;;;;;;;;;10632379;27;20030;-83
2021/04/29 13:41:57;;;;;;;5.00;4.43;;;;;;;;;;10632356;27;20511;-83
2021/04/29 13:46:58;;;;;;;7.82;4.10;;;;;;;;;;10633306;27;20114;-83
2021/04/29 13:51:59;;;;;;;6.88;6.18;;;;;;;;;;10631990;27;20423;-82
2021/04/29 13:57:00;;;;;;;4.90;4.40;;;;;;;;;;10633316;28;20023;-83
2021/04/29 14:02:02;;;;;;;7.18;6.47;;;;;;;;;;10633902;28;20552;-83
2021/04/29 14:07:03;;;;;;;6.18;4.40;;;;;;;;;;10643563;28;20019;-81
2021/04/29 14:12:04;;;;;;;7.35;6.75;;;;;;;;;;10651989;27;20467;-83
2021/04/29 14:17:05;;;;;;;7.15;6.28;;;;;;;;;;10636032;27;20051;-82
2021/04/29 14:22:06;;;;;;;5.90;5.30;;;;;;;;;;10634064;27;20067;-82
2021/04/29 14:27:07;;;;;;;5.60;5.10;;;;;;;;;;10635225;27;20027;-81
2021/04/29 14:32:08;;;;;;;6.18;5.55;;;;;;;;;;10633678;27;20055;-81
2021/04/29 14:37:09;;;;;;;4.13;3.65;;;;;;;;;;10635499;27;20030;-82
2021/04/29 14:42:10;;;;;;;5.32;4.03;;;;;;;;;;10634510;27;20053;-80
2021/04/29 14:47:11;;;;;;;4.47;4.07;;;;;;;;;;10636186;27;20034;-85
2021/04/29 14:52:12;;;;;;;5.65;3.20;;;;;;;;;;10663403;27;20220;-83
2021/04/29 14:57:13;;;;;;;3.60;2.63;;;;;;;;;;10665231;27;20030;-84
2021/04/29 15:02:14;;;;;;;4.57;4.18;;;;;;;;;;10641448;27;20117;-82
2021/04/29 15:07:16;;;;;;;2.70;2.33;;;;;;;;;;10638159;27;20015;-83
2021/04/29 15:12:17;;;;;;;3.60;3.30;;;;;;;;;;10638546;27;20031;-84
2021/04/29 15:17:18;;;;;;;2.75;2.40;;;;;;;;;;10639101;27;20023;-84
2021/04/29 15:22:19;;;;;;;2.80;2.25;;;;;;;;;;10640368;27;20027;-83
2021/04/29 15:27:20;;;;;;;3.55;2.70;;;;;;;;;;10637158;27;20027;-83
2021/04/29 15:32:21;;;;;;;3.55;2.60;;;;;;;;;;10637127;27;20030;-82
2021/04/29 15:37:22;;;;;;;3.58;2.92;;;;;;;;;;10639651;27;20392;-82
2021/04/29 15:42:23;;;;;;;3.00;2.50;;;;;;;;;;10638253;27;20034;-84
2021/04/29 15:47:24;;;;;;;3.80;2.75;;;;;;;;;;10637491;27;20553;-85
2021/04/29 15:52:25;;;;;;;3.20;2.90;;;;;;;;;;10636505;27;20454;-82
2021/04/29 15:57:26;;;;;;;3.30;2.72;;;;;;;;;;10637625;27;20110;-82
2021/04/29 16:02:27;;;;;;;7.03;6.18;;;;;;;;;;10651893;27;20023;-80
2021/04/29 16:07:29;;;;;;;3.17;2.70;;;;;;;;;;10653567;27;20027;-80
2021/04/29 16:12:30;;;;;;;3.97;3.00;;;;;;;;;;10647714;27;20361;-82
2021/04/29 16:17:31;;;;;;;4.40;3.97;;;;;;;;;;10633859;27;20027;-81
2021/04/29 16:22:32;;;;;;;5.25;3.00;;;;;;;;;;10635414;27;20548;-81
2021/04/29 16:27:39;;;;;;;5.53;4.75;;;;;;;;;;10636229;27;20027;-83
2021/04/29 16:32:41;;;;;;;7.65;6.25;;;;;;;;;;10635602;27;20509;-82
2021/04/29 16:37:44;;;;;;;6.00;5.28;;;;;;;;;;10636479;27;20064;-83
2021/04/29 16:42:56;;;;;;;7.53;5.43;;;;;;;;;;10634683;27;20023;-83
2021/04/29 16:47:58;;;;;;;6.85;5.30;;;;;;;;;;10636117;27;20027;-86
2021/04/29 16:53:01;;;;;;;7.25;5.07;;;;;;;;;;10631723;27;20107;-85
2021/04/29 16:58:04;;;;;;;6.10;4.65;;;;;;;;;;10636805;27;20019;-85
2021/04/29 17:03:11;;;;;;;6.18;4.82;;;;;;;;;;10630745;27;20027;-85
2021/04/29 17:08:18;;;;;;;5.80;4.90;;;;;;;;;;10630745;27;20046;-84
2021/04/29 17:13:19;;;;;;;9.63;5.68;;;;;;;;;;10615816;27;20107;-85
2021/04/29 17:18:23;;;;;;;5.32;4.10;;;;;;;;;;10631299;27;20047;-86
2021/04/29 17:23:25;;;;;;;5.80;4.72;;;;;;;;;;10596186;27;20031;-85
2021/04/29 17:28:26;;;;;;;8.07;5.28;;;;;;;;;;10635292;27;20027;-84
2021/04/29 17:33:28;;;;;;;5.82;4.72;;;;;;;;;;10636245;27;20019;-84
2021/04/29 17:38:29;;;;;;;6.32;5.22;;;;;;;;;;10636258;27;20027;-86
2021/04/29 17:43:39;;;;;;;6.15;4.45;;;;;;;;;;10657969;27;20031;-85
2021/04/29 17:48:40;;;;;;;;;;;;;;;;;;10658199;27;20155;-86
2021/04/29 17:53:41;;;;;;;;;;;;;;;;;;10637320;27;19919;-85
2021/04/29 17:58:42;;;;;;;;;;;;;;;;;;10634452;28;19962;-85
2021/04/29 18:03:43;;;;;;;;;;;;;;;;;;10642855;28;19904;-86
2021/04/29 18:08:44;;;;;;;;;;;;;;;;;;10639129;28;19914;-85
2021/04/29 18:13:50;;;;;;;;;;;;;;;;;;10635455;28;20364;-85
2021/04/29 18:19:00;;;;;;;;;;;;;;;;;;10635491;27;19910;-85
2021/04/29 18:24:05;;;;;;;;;;;;;;;;;;10635857;27;19949;-85
2021/04/29 18:29:06;;;;;;;;;;;;;;;;;;10635334;27;19924;-84
2021/04/29 18:34:08;;;;;;;;;;;;;;;;;;10632900;28;19930;-86
2021/04/29 18:39:08;;;;;;;;;;;;;;;;;;10633595;28;19914;-86
2021/04/29 18:44:20;;;;;;;;;;;;;;;;;;10632739;28;19903;-85
2021/04/29 18:49:27;;;;;;;;;;;;;;;;;;10596445;22;19921;-86
2021/04/29 18:59:53;;;;;;;;;;;;;;;;;;10506743;28;19905;-86
2021/04/29 19:04:54;;;;;;;;;;;;;;;;;;10503202;28;19905;-86
2021/04/29 19:09:55;;;;;;;;;;;;;;;;;;10501743;28;19908;-86
2021/04/29 19:14:59;;;;;;;;;;;;;;;;;;10501652;28;19909;-84
2021/04/29 19:20:00;;;;;;;;;;;;;;;;;;10502536;28;19904;-85
2021/04/29 19:25:01;;;;;;;;;;;;;;;;;;10519935;28;19970;-85
2021/04/29 19:30:04;;;;;;;;;;;;;;;;;;10499512;28;20464;-84
2021/04/29 19:35:08;;;;;;;;;;;;;;;;;;10503438;28;19961;-84
2021/04/29 19:40:09;;;;;;;;;;;;;;;;;;10505691;28;19911;-86
2021/04/29 19:45:18;;;;;;;;;;;;;;;;;;10506367;28;19935;-86
2021/04/29 19:50:25;;;;;;;;;;;;;;;;;;10517587;28;19976;-85
2021/04/29 19:55:30;;;;;;;;;;;;;;;;;;10499389;28;19916;-85
2021/04/29 20:00:35;;;;;;;;;;;;;;;;;;10499279;28;19970;-85
2021/04/29 20:05:35;;;;;;;;;;;;;;;;;;10493545;28;19909;-84
2021/04/29 20:10:36;;;;;;;;;;;;;;;;;;10491361;28;19904;-84
2021/04/29 20:15:45;;;;;;;;;;;;;;;;;;10491302;28;19908;-84
2021/04/29 20:20:46;;;;;;;;;;;;;;;;;;10491082;28;19971;-84
